Terminal Aerodrome Forecast
Issued by NWS Charleston, WV

Current Version | Previous Version | Graphics & Text | Print | Product List | Glossary On
Versions: 1 2 3 4 5 6 7 8 9 10 11 12 13 14 15 16 17 18 19
055
FTUS41 KRLX 081124
TAFPKB
TAF
KPKB 081124Z 0812/0912 VRB03KT P6SM OVC100
     FM081400 18004KT 3SM -SHRASN OVC050
     FM081500 19005KT 3SM -SHRASN OVC018
     FM081700 20004KT 2SM -SHRA OVC015
     FM090100 20004KT 1 1/2SM -SHSN OVC008
     FM090600 24005KT 1 1/2SM -SHSN OVC013=

USA.gov is the U.S. government's official web portal to all federal, state and local government web resources and services.